DAL128 KPBI-KATL
Flight info
| Callsign | DAL128 |
|---|---|
| Flight time | N/A |
| Altitude | 30000 |
| Route | TBIRD7 SHRKS LAIRI LARZZ JJEDI4 |
| Aircraft | B738/M-SDE2E3FGHIRWXY/LB1 |
Departure
| Time | 2026-05-05 00:27 |
|---|---|
| Airport | Palm Beach International Airport (KPBI) |
Arrival
| Time | N/A |
|---|---|
| Airport | Hartsfield Jackson Atlanta International Airport (KATL) |
| Time | Latitude | Longitude | Altitude | Speed | Heading |
|---|---|---|---|---|---|
| 2026-05-04 23:33 | 26.68641 | -80.08994 | 25 ft | 0 kts | 92° |
| 2026-05-05 00:09 | 26.68642 | -80.09014 | 26 ft | 4 kts | 93° |
| 2026-05-05 00:09 | 26.68643 | -80.09044 | 25 ft | 4 kts | 93° |
| 2026-05-05 00:09 | 26.68646 | -80.09070 | 25 ft | 4 kts | 115° |
| 2026-05-05 00:10 | 26.68662 | -80.09085 | 25 ft | 4 kts | 174° |
| 2026-05-05 00:10 | 26.68680 | -80.09086 | 27 ft | 1 kts | 182° |
| 2026-05-05 00:10 | 26.68682 | -80.09085 | 25 ft | 0 kts | 182° |
| 2026-05-05 00:14 | 26.68656 | -80.09087 | 29 ft | 7 kts | 182° |
| 2026-05-05 00:14 | 26.68642 | -80.09088 | 25 ft | 0 kts | 182° |
| 2026-05-05 00:17 | 26.68632 | -80.09088 | 28 ft | 9 kts | 182° |
| 2026-05-05 00:17 | 26.68550 | -80.09092 | 29 ft | 12 kts | 182° |
| 2026-05-05 00:17 | 26.68482 | -80.09096 | 28 ft | 0 kts | 182° |
| 2026-05-05 00:17 | 26.68471 | -80.09096 | 25 ft | 7 kts | 182° |
| 2026-05-05 00:18 | 26.68419 | -80.09099 | 28 ft | 8 kts | 182° |
| 2026-05-05 00:18 | 26.68369 | -80.09133 | 25 ft | 13 kts | 240° |
| 2026-05-05 00:18 | 26.68364 | -80.09280 | 25 ft | 25 kts | 272° |
| 2026-05-05 00:18 | 26.68373 | -80.09490 | 25 ft | 27 kts | 272° |
| 2026-05-05 00:19 | 26.68381 | -80.09692 | 27 ft | 25 kts | 272° |
| 2026-05-05 00:19 | 26.68390 | -80.09880 | 29 ft | 23 kts | 272° |
| 2026-05-05 00:19 | 26.68397 | -80.10058 | 24 ft | 23 kts | 273° |
| 2026-05-05 00:19 | 26.68405 | -80.10231 | 24 ft | 22 kts | 273° |
| 2026-05-05 00:20 | 26.68413 | -80.10398 | 24 ft | 21 kts | 273° |
| 2026-05-05 00:20 | 26.68420 | -80.10563 | 24 ft | 21 kts | 273° |
| 2026-05-05 00:20 | 26.68426 | -80.10702 | 24 ft | 15 kts | 272° |
| 2026-05-05 00:20 | 26.68424 | -80.10790 | 27 ft | 6 kts | 248° |
| 2026-05-05 00:21 | 26.68423 | -80.10791 | 24 ft | 0 kts | 247° |
| 2026-05-05 00:26 | 26.68369 | -80.10817 | 29 ft | 15 kts | 174° |
| 2026-05-05 00:26 | 26.68318 | -80.10733 | 26 ft | 3 kts | 93° |
| 2026-05-05 00:26 | 26.68318 | -80.10732 | 24 ft | 0 kts | 93° |
| 2026-05-05 00:27 | 26.68317 | -80.10729 | 24 ft | 6 kts | 93° |
| 2026-05-05 00:27 | 26.68300 | -80.10328 | 26 ft | 96 kts | 92° |
| 2026-05-05 00:27 | 26.68262 | -80.09285 | 45 ft | 169 kts | 91° |
| 2026-05-05 00:27 | 26.68213 | -80.07869 | 799 ft | 184 kts | 90° |
| 2026-05-05 00:28 | 26.68181 | -80.06499 | 2151 ft | 176 kts | 90° |
| 2026-05-05 00:28 | 26.68323 | -80.05070 | 2758 ft | 198 kts | 71° |
| 2026-05-05 00:28 | 26.68938 | -80.03574 | 3000 ft | 224 kts | 64° |
| 2026-05-05 00:28 | 26.69680 | -80.01994 | 3567 ft | 233 kts | 63° |
| 2026-05-05 00:29 | 26.70453 | -80.00350 | 4117 ft | 249 kts | 63° |
| 2026-05-05 00:29 | 26.71403 | -79.98659 | 4691 ft | 265 kts | 47° |
| 2026-05-05 00:29 | 26.72927 | -79.97478 | 5519 ft | 272 kts | 23° |
| 2026-05-05 00:29 | 26.74774 | -79.96962 | 6358 ft | 277 kts | 9° |
| 2026-05-05 00:30 | 26.76705 | -79.96796 | 7150 ft | 283 kts | 352° |
| 2026-05-05 00:30 | 26.78553 | -79.97558 | 7921 ft | 288 kts | 324° |
| 2026-05-05 00:30 | 26.79901 | -79.99210 | 8698 ft | 290 kts | 297° |
| 2026-05-05 00:30 | 26.80664 | -80.01297 | 9525 ft | 291 kts | 288° |
| 2026-05-05 00:31 | 26.81307 | -80.03444 | 10382 ft | 292 kts | 287° |
| 2026-05-05 00:31 | 26.81968 | -80.05672 | 10716 ft | 313 kts | 287° |
| 2026-05-05 00:31 | 26.82684 | -80.08064 | 10960 ft | 334 kts | 287° |
| 2026-05-05 00:31 | 26.83442 | -80.10562 | 11540 ft | 342 kts | 287° |
| 2026-05-05 00:32 | 26.84215 | -80.13087 | 12329 ft | 343 kts | 287° |
| 2026-05-05 00:32 | 26.84992 | -80.15609 | 13158 ft | 343 kts | 287° |
| 2026-05-05 00:32 | 26.85770 | -80.18135 | 13912 ft | 344 kts | 287° |
| 2026-05-05 00:32 | 26.86555 | -80.20681 | 14628 ft | 347 kts | 287° |
| 2026-05-05 00:33 | 26.87344 | -80.23242 | 15319 ft | 349 kts | 287° |
| 2026-05-05 00:33 | 26.88137 | -80.25820 | 15984 ft | 351 kts | 287° |
| 2026-05-05 00:33 | 26.88934 | -80.28408 | 16681 ft | 352 kts | 287° |
| 2026-05-05 00:33 | 26.89735 | -80.31013 | 17308 ft | 355 kts | 287° |
| 2026-05-05 00:34 | 26.90598 | -80.33611 | 17900 ft | 359 kts | 295° |
| 2026-05-05 00:34 | 26.92073 | -80.35897 | 18496 ft | 367 kts | 311° |
| 2026-05-05 00:34 | 26.94098 | -80.37673 | 19058 ft | 377 kts | 327° |
| 2026-05-05 00:34 | 26.96526 | -80.38871 | 19573 ft | 385 kts | 333° |
| 2026-05-05 00:35 | 26.99053 | -80.39935 | 20056 ft | 390 kts | 334° |
| 2026-05-05 00:35 | 27.01618 | -80.40983 | 20546 ft | 394 kts | 334° |
| 2026-05-05 00:35 | 27.04199 | -80.42048 | 21023 ft | 397 kts | 334° |
| 2026-05-05 00:35 | 27.06797 | -80.43142 | 21488 ft | 400 kts | 334° |
| 2026-05-05 00:36 | 27.09408 | -80.44258 | 21956 ft | 403 kts | 333° |
| 2026-05-05 00:36 | 27.12035 | -80.45390 | 22402 ft | 406 kts | 333° |
| 2026-05-05 00:36 | 27.14679 | -80.46531 | 22841 ft | 408 kts | 333° |
| 2026-05-05 00:36 | 27.17336 | -80.47698 | 23258 ft | 411 kts | 332° |
| 2026-05-05 00:37 | 27.19987 | -80.48915 | 23656 ft | 414 kts | 332° |
| 2026-05-05 00:37 | 27.22655 | -80.50158 | 24053 ft | 416 kts | 331° |
| 2026-05-05 00:37 | 27.25335 | -80.51406 | 24441 ft | 418 kts | 332° |
| 2026-05-05 00:37 | 27.28033 | -80.52654 | 24852 ft | 420 kts | 332° |
| 2026-05-05 00:38 | 27.30703 | -80.53885 | 25270 ft | 421 kts | 332° |
| 2026-05-05 00:38 | 27.33445 | -80.55177 | 25661 ft | 422 kts | 330° |
| 2026-05-05 00:38 | 27.36090 | -80.56511 | 26036 ft | 423 kts | 329° |
| 2026-05-05 00:38 | 27.38769 | -80.57897 | 26391 ft | 424 kts | 329° |
| 2026-05-05 00:39 | 27.41458 | -80.59288 | 26760 ft | 426 kts | 329° |
| 2026-05-05 00:39 | 27.44159 | -80.60675 | 27132 ft | 427 kts | 329° |
| 2026-05-05 00:39 | 27.46874 | -80.62059 | 27485 ft | 429 kts | 329° |
| 2026-05-05 00:39 | 27.49593 | -80.63442 | 27874 ft | 429 kts | 329° |
| 2026-05-05 00:40 | 27.52243 | -80.64924 | 28346 ft | 420 kts | 321° |
| 2026-05-05 00:40 | 27.54481 | -80.66942 | 28872 ft | 409 kts | 313° |
| 2026-05-05 00:40 | 27.56592 | -80.69075 | 29370 ft | 406 kts | 312° |
| 2026-05-05 00:40 | 27.58684 | -80.71204 | 29820 ft | 404 kts | 312° |
| 2026-05-05 00:41 | 27.60773 | -80.73324 | 30259 ft | 403 kts | 311° |
| 2026-05-05 00:41 | 27.62757 | -80.75545 | 30548 ft | 403 kts | 310° |
| 2026-05-05 00:41 | 27.64844 | -80.77673 | 30922 ft | 405 kts | 313° |
| 2026-05-05 00:42 | 27.69165 | -80.81783 | 31055 ft | 407 kts | 314° |
| 2026-05-05 00:42 | 27.73523 | -80.86016 | 31065 ft | 418 kts | 313° |
| 2026-05-05 00:43 | 27.77948 | -80.90405 | 31054 ft | 428 kts | 313° |
| 2026-05-05 00:43 | 27.82419 | -80.94845 | 31040 ft | 428 kts | 314° |
| 2026-05-05 00:44 | 27.87411 | -80.98617 | 31043 ft | 434 kts | 323° |
| 2026-05-05 00:44 | 27.92612 | -81.02076 | 31067 ft | 434 kts | 323° |
| 2026-05-05 00:45 | 27.96902 | -81.04968 | 31050 ft | 432 kts | 322° |
| 2026-05-05 00:45 | 28.02871 | -81.09075 | 31047 ft | 431 kts | 322° |
| 2026-05-05 00:46 | 28.07990 | -81.12630 | 31054 ft | 430 kts | 322° |
| 2026-05-05 00:46 | 28.13082 | -81.16169 | 31066 ft | 429 kts | 322° |
| 2026-05-05 00:47 | 28.17340 | -81.19131 | 31068 ft | 428 kts | 322° |
| 2026-05-05 00:47 | 28.22416 | -81.22665 | 31064 ft | 428 kts | 322° |
| 2026-05-05 00:48 | 28.27490 | -81.26202 | 31076 ft | 428 kts | 322° |
| 2026-05-05 00:48 | 28.32570 | -81.29746 | 31064 ft | 428 kts | 322° |
| 2026-05-05 00:49 | 28.37798 | -81.32973 | 31072 ft | 434 kts | 329° |
| 2026-05-05 00:49 | 28.43387 | -81.35729 | 31061 ft | 436 kts | 330° |
| 2026-05-05 00:50 | 28.48914 | -81.38438 | 31063 ft | 435 kts | 330° |
| 2026-05-05 00:50 | 28.54447 | -81.41232 | 31060 ft | 435 kts | 329° |
| 2026-05-05 00:51 | 28.59957 | -81.44056 | 31062 ft | 435 kts | 329° |
| 2026-05-05 00:51 | 28.65473 | -81.46891 | 31060 ft | 435 kts | 329° |
| 2026-05-05 00:52 | 28.70984 | -81.49726 | 31060 ft | 435 kts | 329° |
| 2026-05-05 00:52 | 28.76494 | -81.52560 | 31071 ft | 434 kts | 329° |
| 2026-05-05 00:53 | 28.82008 | -81.55401 | 31062 ft | 434 kts | 329° |
| 2026-05-05 00:53 | 28.87503 | -81.58234 | 31070 ft | 434 kts | 329° |
| 2026-05-05 00:54 | 28.93080 | -81.60914 | 31056 ft | 442 kts | 339° |
| 2026-05-05 00:54 | 28.99296 | -81.61708 | 31081 ft | 453 kts | 348° |
| 2026-05-05 00:55 | 29.05581 | -81.62176 | 31070 ft | 453 kts | 348° |
| 2026-05-05 00:55 | 29.11861 | -81.62682 | 31081 ft | 452 kts | 348° |
| 2026-05-05 00:56 | 29.18140 | -81.63236 | 31083 ft | 452 kts | 348° |
| 2026-05-05 00:56 | 29.24413 | -81.63810 | 31087 ft | 452 kts | 348° |
| 2026-05-05 00:57 | 29.30688 | -81.64388 | 31084 ft | 453 kts | 348° |
| 2026-05-05 00:57 | 29.36970 | -81.64964 | 31081 ft | 453 kts | 348° |
| 2026-05-05 00:58 | 29.43248 | -81.65540 | 31081 ft | 453 kts | 348° |
| 2026-05-05 00:58 | 29.49527 | -81.66117 | 31081 ft | 453 kts | 348° |
| 2026-05-05 00:59 | 29.55812 | -81.66695 | 31081 ft | 453 kts | 347° |
| 2026-05-05 00:59 | 29.62093 | -81.67273 | 31079 ft | 453 kts | 347° |
| 2026-05-05 01:00 | 29.68325 | -81.67848 | 31084 ft | 452 kts | 347° |
| 2026-05-05 01:00 | 29.74594 | -81.68426 | 31083 ft | 452 kts | 347° |
| 2026-05-05 01:01 | 29.80864 | -81.69007 | 31081 ft | 452 kts | 347° |
| 2026-05-05 01:01 | 29.87133 | -81.69587 | 31080 ft | 452 kts | 347° |
| 2026-05-05 01:02 | 29.93399 | -81.70167 | 31083 ft | 452 kts | 347° |
| 2026-05-05 01:02 | 29.99663 | -81.70748 | 31090 ft | 451 kts | 347° |
| 2026-05-05 01:03 | 30.05929 | -81.71329 | 31093 ft | 451 kts | 347° |
| 2026-05-05 01:03 | 30.12187 | -81.71912 | 31095 ft | 451 kts | 347° |
| 2026-05-05 01:04 | 30.18241 | -81.72476 | 31102 ft | 451 kts | 347° |
| 2026-05-05 01:04 | 30.27616 | -81.73351 | 31099 ft | 451 kts | 347° |
| 2026-05-05 01:05 | 30.33876 | -81.73936 | 31103 ft | 451 kts | 348° |
| 2026-05-05 01:05 | 30.40134 | -81.74521 | 31100 ft | 451 kts | 348° |
| 2026-05-05 01:06 | 30.46400 | -81.75107 | 31091 ft | 451 kts | 348° |
| 2026-05-05 01:06 | 30.52667 | -81.75695 | 31092 ft | 452 kts | 348° |
| 2026-05-05 01:07 | 30.58930 | -81.76283 | 31079 ft | 452 kts | 348° |
| 2026-05-05 01:07 | 30.64879 | -81.77910 | 31104 ft | 430 kts | 327° |
| 2026-05-05 01:08 | 30.70215 | -81.81044 | 31092 ft | 430 kts | 326° |
| 2026-05-05 01:08 | 30.75537 | -81.84209 | 31080 ft | 431 kts | 326° |
| 2026-05-05 01:09 | 30.80896 | -81.87351 | 31080 ft | 432 kts | 327° |
| 2026-05-05 01:09 | 30.86272 | -81.90478 | 31086 ft | 432 kts | 327° |
| 2026-05-05 01:10 | 30.91662 | -81.93607 | 31081 ft | 433 kts | 327° |
| 2026-05-05 01:10 | 30.97059 | -81.96745 | 31081 ft | 434 kts | 327° |
| 2026-05-05 01:11 | 31.02462 | -81.99893 | 31082 ft | 434 kts | 327° |
| 2026-05-05 01:11 | 31.07871 | -82.03047 | 31084 ft | 434 kts | 327° |
| 2026-05-05 01:12 | 31.13238 | -82.06179 | 31079 ft | 434 kts | 327° |
| 2026-05-05 01:12 | 31.18628 | -82.09330 | 31082 ft | 433 kts | 327° |
| 2026-05-05 01:13 | 31.24018 | -82.12484 | 31083 ft | 433 kts | 328° |
| 2026-05-05 01:13 | 31.29431 | -82.15657 | 31082 ft | 432 kts | 328° |
| 2026-05-05 01:14 | 31.34763 | -82.18787 | 31081 ft | 432 kts | 328° |
| 2026-05-05 01:14 | 31.40136 | -82.21945 | 31088 ft | 432 kts | 328° |
| 2026-05-05 01:15 | 31.45505 | -82.25105 | 31086 ft | 432 kts | 328° |
| 2026-05-05 01:15 | 31.50887 | -82.28275 | 31081 ft | 433 kts | 328° |
| 2026-05-05 01:16 | 31.56263 | -82.31448 | 31080 ft | 433 kts | 328° |
| 2026-05-05 01:16 | 31.61653 | -82.34631 | 31070 ft | 434 kts | 328° |
| 2026-05-05 01:17 | 31.67043 | -82.37820 | 31080 ft | 434 kts | 328° |
| 2026-05-05 01:17 | 31.72436 | -82.41013 | 31070 ft | 435 kts | 328° |
| 2026-05-05 01:18 | 31.77841 | -82.44218 | 31063 ft | 435 kts | 328° |
| 2026-05-05 01:18 | 31.83244 | -82.47427 | 31060 ft | 435 kts | 328° |
| 2026-05-05 01:19 | 31.88645 | -82.50640 | 31071 ft | 435 kts | 328° |
| 2026-05-05 01:19 | 31.94054 | -82.53859 | 31061 ft | 435 kts | 328° |
| 2026-05-05 01:20 | 31.99000 | -82.57788 | 31075 ft | 425 kts | 315° |
| 2026-05-05 01:20 | 32.03452 | -82.62383 | 31053 ft | 426 kts | 314° |